sensor_id;sensor_type;location;lat;lon;timestamp;pressure;altitude;pressure_sealevel;temperature;humidity
37848;BME280;23688;33.130;-117.188;2023-07-22T00:02:23;99144.19;;;26.75;50.18
37848;BME280;23688;33.130;-117.188;2023-07-22T00:04:53;99140.16;;;26.61;52.14
37848;BME280;23688;33.130;-117.188;2023-07-22T00:07:19;99131.06;;;26.37;53.63
37848;BME280;23688;33.130;-117.188;2023-07-22T00:09:45;99132.31;;;26.57;52.71
37848;BME280;23688;33.130;-117.188;2023-07-22T00:12:12;99129.16;;;26.41;52.04
37848;BME280;23688;33.130;-117.188;2023-07-22T00:14:41;99132.19;;;26.60;51.85
37848;BME280;23688;33.130;-117.188;2023-07-22T00:17:08;99124.84;;;26.98;51.54
37848;BME280;23688;33.130;-117.188;2023-07-22T00:19:36;99136.19;;;27.32;50.57
37848;BME280;23688;33.130;-117.188;2023-07-22T00:22:02;99132.25;;;27.44;48.88
37848;BME280;23688;33.130;-117.188;2023-07-22T00:24:29;99124.13;;;27.21;50.24
37848;BME280;23688;33.130;-117.188;2023-07-22T00:26:55;99120.91;;;27.38;50.15
37848;BME280;23688;33.130;-117.188;2023-07-22T00:29:21;99108.38;;;27.41;50.59
37848;BME280;23688;33.130;-117.188;2023-07-22T00:31:47;99118.34;;;27.35;49.55
37848;BME280;23688;33.130;-117.188;2023-07-22T00:34:15;99103.03;;;27.41;50.46
37848;BME280;23688;33.130;-117.188;2023-07-22T00:36:42;99107.06;;;27.26;48.85
37848;BME280;23688;33.130;-117.188;2023-07-22T00:39:09;99100.72;;;27.02;50.77
37848;BME280;23688;33.130;-117.188;2023-07-22T00:41:37;99102.47;;;26.75;51.56
37848;BME280;23688;33.130;-117.188;2023-07-22T00:44:03;99105.78;;;26.82;50.92
37848;BME280;23688;33.130;-117.188;2023-07-22T00:46:30;99082.91;;;26.45;51.88
37848;BME280;23688;33.130;-117.188;2023-07-22T00:48:56;99096.97;;;26.50;52.35
37848;BME280;23688;33.130;-117.188;2023-07-22T00:51:22;99093.56;;;26.45;53.52
37848;BME280;23688;33.130;-117.188;2023-07-22T00:53:49;99095.66;;;26.65;53.33
37848;BME280;23688;33.130;-117.188;2023-07-22T00:56:15;99075.00;;;26.43;53.43
37848;BME280;23688;33.130;-117.188;2023-07-22T00:58:42;99085.78;;;26.39;54.46
37848;BME280;23688;33.130;-117.188;2023-07-22T01:01:08;99088.56;;;26.34;54.55
37848;BME280;23688;33.130;-117.188;2023-07-22T01:03:35;99088.25;;;26.14;54.21
37848;BME280;23688;33.130;-117.188;2023-07-22T01:06:01;99097.44;;;26.03;54.54
37848;BME280;23688;33.130;-117.188;2023-07-22T01:08:28;99096.03;;;25.90;55.26
37848;BME280;23688;33.130;-117.188;2023-07-22T01:10:54;99077.00;;;25.71;55.64
37848;BME280;23688;33.130;-117.188;2023-07-22T01:13:21;99088.09;;;25.54;56.21
37848;BME280;23688;33.130;-117.188;2023-07-22T01:15:48;99089.94;;;25.15;56.70
37848;BME280;23688;33.130;-117.188;2023-07-22T01:18:14;99092.72;;;25.09;58.42
37848;BME280;23688;33.130;-117.188;2023-07-22T01:20:41;99081.44;;;25.01;59.41
37848;BME280;23688;33.130;-117.188;2023-07-22T01:23:08;99087.16;;;24.82;61.01
37848;BME280;23688;33.130;-117.188;2023-07-22T01:25:37;99080.47;;;24.66;61.45
37848;BME280;23688;33.130;-117.188;2023-07-22T01:28:09;99080.25;;;24.34;63.31
37848;BME280;23688;33.130;-117.188;2023-07-22T01:30:36;99085.13;;;24.12;66.64
37848;BME280;23688;33.130;-117.188;2023-07-22T01:33:02;99094.13;;;24.04;65.33
37848;BME280;23688;33.130;-117.188;2023-07-22T01:35:28;99085.13;;;24.11;67.00
37848;BME280;23688;33.130;-117.188;2023-07-22T01:37:58;99092.69;;;23.87;68.08
37848;BME280;23688;33.130;-117.188;2023-07-22T01:40:25;99093.97;;;23.63;70.61
37848;BME280;23688;33.130;-117.188;2023-07-22T01:42:51;99087.44;;;23.33;73.57
37848;BME280;23688;33.130;-117.188;2023-07-22T01:45:18;99069.09;;;23.21;73.89
37848;BME280;23688;33.130;-117.188;2023-07-22T01:47:45;99081.38;;;23.26;73.48
37848;BME280;23688;33.130;-117.188;2023-07-22T01:50:11;99096.75;;;23.04;75.65
37848;BME280;23688;33.130;-117.188;2023-07-22T01:52:40;99088.13;;;22.87;75.98
37848;BME280;23688;33.130;-117.188;2023-07-22T01:55:07;99096.88;;;22.92;76.23
37848;BME280;23688;33.130;-117.188;2023-07-22T01:57:36;99083.00;;;22.78;76.41
37848;BME280;23688;33.130;-117.188;2023-07-22T02:00:03;99076.91;;;22.73;76.86
37848;BME280;23688;33.130;-117.188;2023-07-22T02:02:31;99084.69;;;22.82;76.80
37848;BME280;23688;33.130;-117.188;2023-07-22T02:04:57;99090.13;;;22.73;77.17
37848;BME280;23688;33.130;-117.188;2023-07-22T02:07:23;99086.81;;;22.58;77.02
37848;BME280;23688;33.130;-117.188;2023-07-22T02:09:52;99098.09;;;22.71;77.90
37848;BME280;23688;33.130;-117.188;2023-07-22T02:12:19;99077.53;;;22.89;76.00
37848;BME280;23688;33.130;-117.188;2023-07-22T02:14:46;99087.06;;;23.02;75.58
37848;BME280;23688;33.130;-117.188;2023-07-22T02:17:12;99084.44;;;23.00;74.73
37848;BME280;23688;33.130;-117.188;2023-07-22T02:19:39;99072.16;;;22.93;75.14
37848;BME280;23688;33.130;-117.188;2023-07-22T02:22:05;99079.44;;;22.79;76.16
37848;BME280;23688;33.130;-117.188;2023-07-22T02:24:31;99070.88;;;22.60;77.51
37848;BME280;23688;33.130;-117.188;2023-07-22T02:27:00;99076.47;;;22.40;79.03
37848;BME280;23688;33.130;-117.188;2023-07-22T02:29:27;99065.06;;;22.35;79.92
37848;BME280;23688;33.130;-117.188;2023-07-22T02:31:53;99062.69;;;22.12;81.22
37848;BME280;23688;33.130;-117.188;2023-07-22T02:34:19;99082.19;;;22.03;81.69
37848;BME280;23688;33.130;-117.188;2023-07-22T02:36:46;99094.66;;;21.90;83.49
37848;BME280;23688;33.130;-117.188;2023-07-22T02:39:12;99091.38;;;21.68;85.12
37848;BME280;23688;33.130;-117.188;2023-07-22T02:41:39;99096.69;;;21.64;86.49
37848;BME280;23688;33.130;-117.188;2023-07-22T02:44:05;99081.84;;;21.52;87.04
37848;BME280;23688;33.130;-117.188;2023-07-22T02:46:31;99089.97;;;21.29;88.99
37848;BME280;23688;33.130;-117.188;2023-07-22T02:48:58;99086.34;;;21.44;88.54
37848;BME280;23688;33.130;-117.188;2023-07-22T02:51:25;99089.72;;;21.55;88.17
37848;BME280;23688;33.130;-117.188;2023-07-22T02:53:51;99057.28;;;21.37;88.52
37848;BME280;23688;33.130;-117.188;2023-07-22T02:56:21;99073.63;;;21.79;86.88
37848;BME280;23688;33.130;-117.188;2023-07-22T02:58:56;99044.78;;;21.61;86.11
37848;BME280;23688;33.130;-117.188;2023-07-22T03:01:22;99079.03;;;21.67;86.90
37848;BME280;23688;33.130;-117.188;2023-07-22T03:03:50;99073.72;;;21.72;86.24
37848;BME280;23688;33.130;-117.188;2023-07-22T03:06:19;99077.03;;;21.91;85.47
37848;BME280;23688;33.130;-117.188;2023-07-22T03:08:49;99043.59;;;21.87;84.47
37848;BME280;23688;33.130;-117.188;2023-07-22T03:11:18;99082.94;;;22.14;83.92
37848;BME280;23688;33.130;-117.188;2023-07-22T03:13:48;99068.09;;;22.02;83.40
37848;BME280;23688;33.130;-117.188;2023-07-22T03:16:14;99073.34;;;22.06;83.13
37848;BME280;23688;33.130;-117.188;2023-07-22T03:18:44;99049.69;;;21.95;83.16
37848;BME280;23688;33.130;-117.188;2023-07-22T03:21:13;99050.47;;;22.01;83.11
37848;BME280;23688;33.130;-117.188;2023-07-22T03:23:39;99082.03;;;22.17;83.15
37848;BME280;23688;33.130;-117.188;2023-07-22T03:26:06;99069.78;;;22.10;82.98
37848;BME280;23688;33.130;-117.188;2023-07-22T03:28:34;99058.44;;;22.00;83.10
37848;BME280;23688;33.130;-117.188;2023-07-22T03:31:01;99060.97;;;22.08;83.29
37848;BME280;23688;33.130;-117.188;2023-07-22T03:33:28;99080.34;;;22.08;83.51
37848;BME280;23688;33.130;-117.188;2023-07-22T03:35:54;99074.31;;;21.97;83.91
37848;BME280;23688;33.130;-117.188;2023-07-22T03:38:21;99069.06;;;21.95;84.07
37848;BME280;23688;33.130;-117.188;2023-07-22T03:40:47;99070.88;;;21.87;84.77
37848;BME280;23688;33.130;-117.188;2023-07-22T03:43:13;99062.41;;;21.57;86.76
37848;BME280;23688;33.130;-117.188;2023-07-22T03:45:40;99067.72;;;21.56;87.32
37848;BME280;23688;33.130;-117.188;2023-07-22T03:48:09;99066.88;;;21.52;87.72
37848;BME280;23688;33.130;-117.188;2023-07-22T03:50:36;99061.63;;;21.51;88.00
37848;BME280;23688;33.130;-117.188;2023-07-22T03:53:02;99075.56;;;21.64;87.74
37848;BME280;23688;33.130;-117.188;2023-07-22T03:55:32;99066.78;;;21.63;86.98
37848;BME280;23688;33.130;-117.188;2023-07-22T03:57:59;99072.81;;;21.74;86.14
37848;BME280;23688;33.130;-117.188;2023-07-22T04:00:28;99071.00;;;21.78;86.07
37848;BME280;23688;33.130;-117.188;2023-07-22T04:02:55;99074.56;;;21.74;86.19
37848;BME280;23688;33.130;-117.188;2023-07-22T04:05:21;99071.06;;;21.73;86.51
37848;BME280;23688;33.130;-117.188;2023-07-22T04:07:48;99047.50;;;21.52;86.66
37848;BME280;23688;33.130;-117.188;2023-07-22T04:10:14;99075.56;;;21.64;86.46
37848;BME280;23688;33.130;-117.188;2023-07-22T04:12:40;99074.63;;;21.71;86.92
37848;BME280;23688;33.130;-117.188;2023-07-22T04:15:07;99075.50;;;21.70;86.89
37848;BME280;23688;33.130;-117.188;2023-07-22T04:17:34;99077.22;;;21.75;86.65
37848;BME280;23688;33.130;-117.188;2023-07-22T04:20:00;99071.03;;;21.76;86.65
37848;BME280;23688;33.130;-117.188;2023-07-22T04:22:26;99072.84;;;21.73;86.66
37848;BME280;23688;33.130;-117.188;2023-07-22T04:24:53;99070.25;;;21.68;86.91
37848;BME280;23688;33.130;-117.188;2023-07-22T04:27:19;99076.34;;;21.73;86.70
37848;BME280;23688;33.130;-117.188;2023-07-22T04:29:46;99065.91;;;21.61;86.76
37848;BME280;23688;33.130;-117.188;2023-07-22T04:32:12;99078.22;;;21.64;87.35
37848;BME280;23688;33.130;-117.188;2023-07-22T04:34:38;99059.81;;;21.54;87.45
37848;BME280;23688;33.130;-117.188;2023-07-22T04:37:05;99075.63;;;21.59;87.83
37848;BME280;23688;33.130;-117.188;2023-07-22T04:39:34;99086.38;;;21.39;88.95
37848;BME280;23688;33.130;-117.188;2023-07-22T04:42:01;99084.75;;;21.18;90.24
37848;BME280;23688;33.130;-117.188;2023-07-22T04:44:27;99084.69;;;21.26;90.64
37848;BME280;23688;33.130;-117.188;2023-07-22T04:46:54;99085.47;;;21.37;90.63
37848;BME280;23688;33.130;-117.188;2023-07-22T04:49:22;99088.09;;;21.38;90.19
37848;BME280;23688;33.130;-117.188;2023-07-22T04:51:51;99078.59;;;21.17;90.84
37848;BME280;23688;33.130;-117.188;2023-07-22T04:54:17;99098.81;;;21.19;91.71
37848;BME280;23688;33.130;-117.188;2023-07-22T04:56:44;99099.72;;;21.19;91.56
37848;BME280;23688;33.130;-117.188;2023-07-22T04:59:10;99103.25;;;21.13;91.59
37848;BME280;23688;33.130;-117.188;2023-07-22T05:01:36;99094.63;;;20.93;92.23
37848;BME280;23688;33.130;-117.188;2023-07-22T05:04:03;99101.66;;;20.91;93.15
37848;BME280;23688;33.130;-117.188;2023-07-22T05:06:30;99090.34;;;20.73;94.14
37848;BME280;23688;33.130;-117.188;2023-07-22T05:08:56;99094.75;;;20.71;95.14
37848;BME280;23688;33.130;-117.188;2023-07-22T05:11:26;99096.47;;;20.80;95.04
37848;BME280;23688;33.130;-117.188;2023-07-22T05:13:52;99092.03;;;20.85;94.65
37848;BME280;23688;33.130;-117.188;2023-07-22T05:16:21;99073.63;;;20.74;94.50
37848;BME280;23688;33.130;-117.188;2023-07-22T05:18:47;99085.91;;;20.82;94.70
37848;BME280;23688;33.130;-117.188;2023-07-22T05:21:13;99084.09;;;20.87;95.19
37848;BME280;23688;33.130;-117.188;2023-07-22T05:23:42;99073.53;;;20.87;93.87
37848;BME280;23688;33.130;-117.188;2023-07-22T05:26:09;99080.50;;;20.99;93.00
37848;BME280;23688;33.130;-117.188;2023-07-22T05:28:35;99084.06;;;20.93;93.09
37848;BME280;23688;33.130;-117.188;2023-07-22T05:31:07;99063.91;;;20.83;93.75
37848;BME280;23688;33.130;-117.188;2023-07-22T05:33:33;99056.94;;;20.76;93.99
37848;BME280;23688;33.130;-117.188;2023-07-22T05:36:00;99047.28;;;20.73;94.27
37848;BME280;23688;33.130;-117.188;2023-07-22T05:38:29;99038.53;;;20.60;94.19
37848;BME280;23688;33.130;-117.188;2023-07-22T05:40:57;99063.09;;;20.73;94.30
37848;BME280;23688;33.130;-117.188;2023-07-22T05:43:23;99064.81;;;20.77;94.57
37848;BME280;23688;33.130;-117.188;2023-07-22T05:45:49;99076.25;;;20.81;94.80
37848;BME280;23688;33.130;-117.188;2023-07-22T05:48:16;99068.38;;;20.70;95.07
37848;BME280;23688;33.130;-117.188;2023-07-22T05:50:42;99089.47;;;20.76;94.92
37848;BME280;23688;33.130;-117.188;2023-07-22T05:53:12;99088.69;;;20.59;95.53
37848;BME280;23688;33.130;-117.188;2023-07-22T05:55:41;99086.22;;;20.16;98.97
37848;BME280;23688;33.130;-117.188;2023-07-22T05:58:15;99088.97;;;19.79;100.00
37848;BME280;23688;33.130;-117.188;2023-07-22T06:00:43;99084.59;;;19.70;100.00
37848;BME280;23688;33.130;-117.188;2023-07-22T06:03:09;99095.09;;;19.62;100.00
37848;BME280;23688;33.130;-117.188;2023-07-22T06:05:38;99093.38;;;19.31;100.00
37848;BME280;23688;33.130;-117.188;2023-07-22T06:08:07;99083.75;;;19.00;100.00
37848;BME280;23688;33.130;-117.188;2023-07-22T06:10:37;99094.28;;;19.20;100.00
37848;BME280;23688;33.130;-117.188;2023-07-22T06:13:04;99082.88;;;19.29;100.00
37848;BME280;23688;33.130;-117.188;2023-07-22T06:15:30;99092.50;;;19.35;100.00
37848;BME280;23688;33.130;-117.188;2023-07-22T06:18:05;99102.16;;;19.33;100.00
37848;BME280;23688;33.130;-117.188;2023-07-22T06:20:35;99106.56;;;19.41;100.00
37848;BME280;23688;33.130;-117.188;2023-07-22T06:23:02;99111.81;;;19.46;100.00
37848;BME280;23688;33.130;-117.188;2023-07-22T06:25:28;99117.94;;;19.57;100.00
37848;BME280;23688;33.130;-117.188;2023-07-22T06:27:55;99104.78;;;19.57;100.00
37848;BME280;23688;33.130;-117.188;2023-07-22T06:30:21;99108.28;;;19.62;100.00
37848;BME280;23688;33.130;-117.188;2023-07-22T06:32:48;99107.41;;;19.59;100.00
37848;BME280;23688;33.130;-117.188;2023-07-22T06:35:14;99121.47;;;19.61;100.00
37848;BME280;23688;33.130;-117.188;2023-07-22T06:37:40;99117.06;;;19.58;100.00
37848;BME280;23688;33.130;-117.188;2023-07-22T06:40:07;99120.59;;;19.63;100.00
37848;BME280;23688;33.130;-117.188;2023-07-22T06:42:34;99096.00;;;19.43;100.00
37848;BME280;23688;33.130;-117.188;2023-07-22T06:45:00;99108.31;;;19.52;100.00
37848;BME280;23688;33.130;-117.188;2023-07-22T06:47:28;99114.44;;;19.48;100.00
37848;BME280;23688;33.130;-117.188;2023-07-22T06:49:54;99115.28;;;19.65;100.00
37848;BME280;23688;33.130;-117.188;2023-07-22T06:52:21;99101.25;;;19.64;100.00
37848;BME280;23688;33.130;-117.188;2023-07-22T06:54:47;99108.31;;;19.78;100.00
37848;BME280;23688;33.130;-117.188;2023-07-22T06:57:16;99104.78;;;19.80;100.00
37848;BME280;23688;33.130;-117.188;2023-07-22T06:59:42;99110.03;;;19.82;100.00
37848;BME280;23688;33.130;-117.188;2023-07-22T07:02:08;99112.69;;;19.76;100.00
37848;BME280;23688;33.130;-117.188;2023-07-22T07:04:34;99117.06;;;19.64;100.00
37848;BME280;23688;33.130;-117.188;2023-07-22T07:07:01;99106.53;;;19.69;100.00
37848;BME280;23688;33.130;-117.188;2023-07-22T07:09:28;99099.53;;;19.76;100.00
37848;BME280;23688;33.130;-117.188;2023-07-22T07:11:54;99105.66;;;19.85;100.00
37848;BME280;23688;33.130;-117.188;2023-07-22T07:14:24;99108.28;;;19.84;100.00
37848;BME280;23688;33.130;-117.188;2023-07-22T07:16:53;99102.13;;;19.86;100.00
37848;BME280;23688;33.130;-117.188;2023-07-22T07:19:19;99106.53;;;19.87;100.00
37848;BME280;23688;33.130;-117.188;2023-07-22T07:21:46;99100.34;;;19.93;100.00
37848;BME280;23688;33.130;-117.188;2023-07-22T07:24:12;99088.03;;;19.94;100.00
37848;BME280;23688;33.130;-117.188;2023-07-22T07:26:38;99081.91;;;19.95;100.00
37848;BME280;23688;33.130;-117.188;2023-07-22T07:29:04;99095.09;;;19.95;100.00
37848;BME280;23688;33.130;-117.188;2023-07-22T07:31:31;99098.56;;;20.01;100.00
37848;BME280;23688;33.130;-117.188;2023-07-22T07:33:57;99081.91;;;19.93;100.00
37848;BME280;23688;33.130;-117.188;2023-07-22T07:36:24;99087.19;;;19.93;100.00
37848;BME280;23688;33.130;-117.188;2023-07-22T07:38:50;99101.22;;;19.94;100.00
37848;BME280;23688;33.130;-117.188;2023-07-22T07:41:16;99093.34;;;19.77;100.00
37848;BME280;23688;33.130;-117.188;2023-07-22T07:43:43;99089.00;;;19.68;100.00
37848;BME280;23688;33.130;-117.188;2023-07-22T07:48:39;99089.00;;;19.45;100.00
37848;BME280;23688;33.130;-117.188;2023-07-22T07:51:08;99087.25;;;19.27;100.00
37848;BME280;23688;33.130;-117.188;2023-07-22T07:53:34;99089.00;;;19.20;100.00
37848;BME280;23688;33.130;-117.188;2023-07-22T07:56:01;99105.69;;;19.22;100.00
37848;BME280;23688;33.130;-117.188;2023-07-22T07:58:27;99092.50;;;19.25;100.00
37848;BME280;23688;33.130;-117.188;2023-07-22T08:00:54;99079.38;;;19.19;100.00
37848;BME280;23688;33.130;-117.188;2023-07-22T08:03:20;99089.88;;;18.95;100.00
37848;BME280;23688;33.130;-117.188;2023-07-22T08:05:46;99088.91;;;18.62;100.00
37848;BME280;23688;33.130;-117.188;2023-07-22T08:08:12;99101.97;;;18.37;100.00
37848;BME280;23688;33.130;-117.188;2023-07-22T08:10:38;99097.53;;;18.21;100.00
37848;BME280;23688;33.130;-117.188;2023-07-22T08:13:05;99097.47;;;18.03;100.00
37848;BME280;23688;33.130;-117.188;2023-07-22T08:15:31;99097.38;;;17.92;100.00
37848;BME280;23688;33.130;-117.188;2023-07-22T08:17:58;99093.06;;;17.99;100.00
37848;BME280;23688;33.130;-117.188;2023-07-22T08:20:26;99065.78;;;17.80;100.00
37848;BME280;23688;33.130;-117.188;2023-07-22T08:22:52;99078.16;;;17.93;100.00
37848;BME280;23688;33.130;-117.188;2023-07-22T08:25:18;99085.22;;;18.08;100.00
37848;BME280;23688;33.130;-117.188;2023-07-22T08:27:44;99080.06;;;18.32;100.00
37848;BME280;23688;33.130;-117.188;2023-07-22T08:30:11;99081.00;;;18.51;100.00
37848;BME280;23688;33.130;-117.188;2023-07-22T08:32:37;99072.25;;;18.58;100.00
37848;BME280;23688;33.130;-117.188;2023-07-22T08:35:04;99086.34;;;18.76;100.00
37848;BME280;23688;33.130;-117.188;2023-07-22T08:37:31;99095.09;;;18.87;100.00
37848;BME280;23688;33.130;-117.188;2023-07-22T08:39:57;99082.88;;;18.88;100.00
37848;BME280;23688;33.130;-117.188;2023-07-22T08:42:25;99079.34;;;18.96;100.00
37848;BME280;23688;33.130;-117.188;2023-07-22T08:44:56;99069.72;;;19.03;100.00
37848;BME280;23688;33.130;-117.188;2023-07-22T08:47:29;99084.63;;;19.15;100.00
37848;BME280;23688;33.130;-117.188;2023-07-22T08:49:58;99086.38;;;19.23;100.00
37848;BME280;23688;33.130;-117.188;2023-07-22T08:52:30;99083.75;;;19.25;100.00
37848;BME280;23688;33.130;-117.188;2023-07-22T08:54:56;99093.41;;;19.32;100.00
37848;BME280;23688;33.130;-117.188;2023-07-22T08:57:30;99081.97;;;19.29;100.00
37848;BME280;23688;33.130;-117.188;2023-07-22T08:59:58;99085.50;;;19.35;100.00
37848;BME280;23688;33.130;-117.188;2023-07-22T09:02:28;99079.34;;;19.39;100.00
37848;BME280;23688;33.130;-117.188;2023-07-22T09:04:55;99062.69;;;19.30;100.00
37848;BME280;23688;33.130;-117.188;2023-07-22T09:07:26;99078.47;;;19.45;100.00
37848;BME280;23688;33.130;-117.188;2023-07-22T09:09:53;99087.25;;;19.47;100.00
37848;BME280;23688;33.130;-117.188;2023-07-22T09:12:21;99088.97;;;19.48;100.00
37848;BME280;23688;33.130;-117.188;2023-07-22T09:14:50;99081.97;;;19.47;100.00
37848;BME280;23688;33.130;-117.188;2023-07-22T09:17:17;99056.53;;;19.40;100.00
37848;BME280;23688;33.130;-117.188;2023-07-22T09:19:43;99048.63;;;19.35;100.00
37848;BME280;23688;33.130;-117.188;2023-07-22T09:22:10;99065.31;;;19.46;100.00
37848;BME280;23688;33.130;-117.188;2023-07-22T09:24:36;99076.72;;;19.44;100.00
37848;BME280;23688;33.130;-117.188;2023-07-22T09:27:03;99078.47;;;19.42;100.00
37848;BME280;23688;33.130;-117.188;2023-07-22T09:29:34;99092.50;;;19.45;100.00
37848;BME280;23688;33.130;-117.188;2023-07-22T09:32:01;99091.63;;;19.46;100.00
37848;BME280;23688;33.130;-117.188;2023-07-22T09:34:29;99081.97;;;19.47;100.00
37848;BME280;23688;33.130;-117.188;2023-07-22T09:36:59;99088.13;;;19.46;100.00
37848;BME280;23688;33.130;-117.188;2023-07-22T09:39:26;99059.19;;;19.24;100.00
37848;BME280;23688;33.130;-117.188;2023-07-22T09:41:55;99052.16;;;19.23;100.00
37848;BME280;23688;33.130;-117.188;2023-07-22T09:44:31;99039.88;;;19.16;100.00
37848;BME280;23688;33.130;-117.188;2023-07-22T09:47:06;99060.06;;;19.27;100.00
37848;BME280;23688;33.130;-117.188;2023-07-22T09:49:39;99070.59;;;19.22;100.00
37848;BME280;23688;33.130;-117.188;2023-07-22T09:52:09;99093.41;;;19.32;100.00
37848;BME280;23688;33.130;-117.188;2023-07-22T09:54:46;99092.53;;;19.32;100.00
37848;BME280;23688;33.130;-117.188;2023-07-22T09:57:14;99079.34;;;19.30;100.00
37848;BME280;23688;33.130;-117.188;2023-07-22T09:59:41;99081.09;;;19.37;100.00
37848;BME280;23688;33.130;-117.188;2023-07-22T10:02:10;99080.22;;;19.35;100.00
37848;BME280;23688;33.130;-117.188;2023-07-22T10:04:37;99066.19;;;19.16;100.00
37848;BME280;23688;33.130;-117.188;2023-07-22T10:07:05;99095.13;;;19.33;100.00
37848;BME280;23688;33.130;-117.188;2023-07-22T10:09:36;99088.13;;;19.29;100.00
37848;BME280;23688;33.130;-117.188;2023-07-22T10:12:03;99089.88;;;19.27;100.00
37848;BME280;23688;33.130;-117.188;2023-07-22T10:14:29;99098.66;;;19.26;100.00
37848;BME280;23688;33.130;-117.188;2023-07-22T10:16:56;99077.59;;;19.15;100.00
37848;BME280;23688;33.130;-117.188;2023-07-22T10:19:23;99112.69;;;19.39;100.00
37848;BME280;23688;33.130;-117.188;2023-07-22T10:21:51;99084.63;;;19.25;100.00
37848;BME280;23688;33.130;-117.188;2023-07-22T10:24:20;99077.59;;;18.97;100.00
37848;BME280;23688;33.130;-117.188;2023-07-22T10:26:49;99060.94;;;18.78;100.00
37848;BME280;23688;33.130;-117.188;2023-07-22T10:29:17;99058.28;;;18.79;100.00
37848;BME280;23688;33.130;-117.188;2023-07-22T10:31:46;99084.59;;;18.96;100.00
37848;BME280;23688;33.130;-117.188;2023-07-22T10:34:12;99076.72;;;18.93;100.00
37848;BME280;23688;33.130;-117.188;2023-07-22T10:36:38;99099.53;;;19.02;100.00
37848;BME280;23688;33.130;-117.188;2023-07-22T10:39:04;99098.66;;;19.06;100.00
37848;BME280;23688;33.130;-117.188;2023-07-22T10:41:32;99096.03;;;19.03;100.00
37848;BME280;23688;33.130;-117.188;2023-07-22T10:44:10;99060.91;;;18.92;100.00
37848;BME280;23688;33.130;-117.188;2023-07-22T10:46:37;99082.00;;;19.15;100.00
37848;BME280;23688;33.130;-117.188;2023-07-22T10:49:12;99053.94;;;19.03;100.00
37848;BME280;23688;33.130;-117.188;2023-07-22T10:51:39;99062.69;;;19.16;100.00
37848;BME280;23688;33.130;-117.188;2023-07-22T10:54:13;99082.84;;;19.26;100.00
37848;BME280;23688;33.130;-117.188;2023-07-22T10:56:54;99070.59;;;19.25;100.00
37848;BME280;23688;33.130;-117.188;2023-07-22T10:59:26;99063.56;;;19.18;100.00
37848;BME280;23688;33.130;-117.188;2023-07-22T11:01:53;99057.41;;;19.23;100.00
37848;BME280;23688;33.130;-117.188;2023-07-22T11:04:24;99064.44;;;19.31;100.00
37848;BME280;23688;33.130;-117.188;2023-07-22T11:06:58;99043.41;;;19.29;100.00
37848;BME280;23688;33.130;-117.188;2023-07-22T11:12:02;99017.97;;;19.08;100.00
37848;BME280;23688;33.130;-117.188;2023-07-22T11:14:29;99065.31;;;19.30;100.00
37848;BME280;23688;33.130;-117.188;2023-07-22T11:17:04;99060.06;;;19.25;100.00
37848;BME280;23688;33.130;-117.188;2023-07-22T11:19:31;99056.56;;;19.20;100.00
37848;BME280;23688;33.130;-117.188;2023-07-22T11:21:59;99066.19;;;19.18;100.00
37848;BME280;23688;33.130;-117.188;2023-07-22T11:24:26;99074.97;;;19.21;100.00
37848;BME280;23688;33.130;-117.188;2023-07-22T11:26:53;99083.75;;;19.30;100.00
37848;BME280;23688;33.130;-117.188;2023-07-22T11:29:20;99070.59;;;19.27;100.00
37848;BME280;23688;33.130;-117.188;2023-07-22T11:31:50;99069.69;;;19.31;100.00
37848;BME280;23688;33.130;-117.188;2023-07-22T11:34:21;99078.47;;;19.42;100.00
37848;BME280;23688;33.130;-117.188;2023-07-22T11:36:49;99060.03;;;19.33;100.00
37848;BME280;23688;33.130;-117.188;2023-07-22T11:39:24;99080.22;;;19.43;100.00
37848;BME280;23688;33.130;-117.188;2023-07-22T11:41:51;99080.22;;;19.32;100.00
37848;BME280;23688;33.130;-117.188;2023-07-22T11:44:20;99070.59;;;19.27;100.00
37848;BME280;23688;33.130;-117.188;2023-07-22T11:47:06;99035.50;;;19.01;100.00
37848;BME280;23688;33.130;-117.188;2023-07-22T11:49:41;99090.75;;;19.21;100.00
37848;BME280;23688;33.130;-117.188;2023-07-22T11:52:09;99103.03;;;19.01;100.00
37848;BME280;23688;33.130;-117.188;2023-07-22T11:54:40;99101.28;;;19.03;100.00
37848;BME280;23688;33.130;-117.188;2023-07-22T11:59:43;99102.16;;;18.99;100.00
37848;BME280;23688;33.130;-117.188;2023-07-22T12:02:19;99095.13;;;18.93;100.00
37848;BME280;23688;33.130;-117.188;2023-07-22T12:05:01;99090.75;;;19.03;100.00
37848;BME280;23688;33.130;-117.188;2023-07-22T12:07:29;99093.41;;;19.05;100.00
37848;BME280;23688;33.130;-117.188;2023-07-22T12:09:59;99093.38;;;19.09;100.00
37848;BME280;23688;33.130;-117.188;2023-07-22T12:12:40;99092.50;;;18.98;100.00
37848;BME280;23688;33.130;-117.188;2023-07-22T12:15:19;99093.38;;;18.86;100.00
37848;BME280;23688;33.130;-117.188;2023-07-22T12:17:56;99090.69;;;18.71;100.00
37848;BME280;23688;33.130;-117.188;2023-07-22T12:20:27;99072.25;;;18.69;100.00
37848;BME280;23688;33.130;-117.188;2023-07-22T12:22:55;99101.22;;;18.74;100.00
37848;BME280;23688;33.130;-117.188;2023-07-22T12:25:22;99104.72;;;18.74;100.00
37848;BME280;23688;33.130;-117.188;2023-07-22T12:27:48;99095.06;;;18.72;100.00
37848;BME280;23688;33.130;-117.188;2023-07-22T12:30:19;99097.75;;;18.78;100.00
37848;BME280;23688;33.130;-117.188;2023-07-22T12:32:46;99082.78;;;18.74;100.00
37848;BME280;23688;33.130;-117.188;2023-07-22T12:35:12;99101.25;;;18.89;100.00
37848;BME280;23688;33.130;-117.188;2023-07-22T12:37:39;99110.91;;;18.96;100.00